sensor_id;sensor_type;location;lat;lon;timestamp;P1;durP1;ratioP1;P2;durP2;ratioP2
76063;SDS011;64762;52.006;8.424;2022-12-08T00:00:38;9.20;;;5.30;;
76063;SDS011;64762;52.006;8.424;2022-12-08T00:03:03;9.13;;;4.57;;
76063;SDS011;64762;52.006;8.424;2022-12-08T00:05:28;8.33;;;5.10;;
76063;SDS011;64762;52.006;8.424;2022-12-08T00:08:12;7.53;;;4.38;;
76063;SDS011;64762;52.006;8.424;2022-12-08T00:10:56;8.43;;;4.97;;
76063;SDS011;64762;52.006;8.424;2022-12-08T00:13:22;7.20;;;5.03;;
76063;SDS011;64762;52.006;8.424;2022-12-08T00:15:47;9.45;;;5.13;;
76063;SDS011;64762;52.006;8.424;2022-12-08T00:18:13;6.83;;;5.10;;
76063;SDS011;64762;52.006;8.424;2022-12-08T00:20:38;7.97;;;4.90;;
76063;SDS011;64762;52.006;8.424;2022-12-08T00:23:03;9.63;;;4.57;;
76063;SDS011;64762;52.006;8.424;2022-12-08T00:25:29;9.70;;;4.37;;
76063;SDS011;64762;52.006;8.424;2022-12-08T00:27:55;11.07;;;5.35;;
76063;SDS011;64762;52.006;8.424;2022-12-08T00:30:20;8.17;;;4.63;;
76063;SDS011;64762;52.006;8.424;2022-12-08T00:32:46;7.50;;;4.47;;
76063;SDS011;64762;52.006;8.424;2022-12-08T00:35:11;8.20;;;4.53;;
76063;SDS011;64762;52.006;8.424;2022-12-08T00:37:36;7.77;;;4.80;;
76063;SDS011;64762;52.006;8.424;2022-12-08T00:40:02;9.57;;;5.03;;
76063;SDS011;64762;52.006;8.424;2022-12-08T00:42:27;7.38;;;4.40;;
76063;SDS011;64762;52.006;8.424;2022-12-08T00:44:52;6.53;;;4.60;;
76063;SDS011;64762;52.006;8.424;2022-12-08T00:47:18;8.80;;;4.78;;
76063;SDS011;64762;52.006;8.424;2022-12-08T00:49:43;7.57;;;4.87;;
76063;SDS011;64762;52.006;8.424;2022-12-08T00:52:09;7.00;;;4.20;;
76063;SDS011;64762;52.006;8.424;2022-12-08T00:54:34;8.53;;;5.20;;
76063;SDS011;64762;52.006;8.424;2022-12-08T00:56:59;8.20;;;5.63;;
76063;SDS011;64762;52.006;8.424;2022-12-08T00:59:25;9.27;;;4.87;;
76063;SDS011;64762;52.006;8.424;2022-12-08T01:01:50;9.80;;;5.47;;
76063;SDS011;64762;52.006;8.424;2022-12-08T01:04:16;7.32;;;5.03;;
76063;SDS011;64762;52.006;8.424;2022-12-08T01:06:42;8.07;;;5.22;;
76063;SDS011;64762;52.006;8.424;2022-12-08T01:09:08;8.75;;;5.07;;
76063;SDS011;64762;52.006;8.424;2022-12-08T01:11:34;9.82;;;5.80;;
76063;SDS011;64762;52.006;8.424;2022-12-08T01:14:00;9.35;;;5.70;;
76063;SDS011;64762;52.006;8.424;2022-12-08T01:16:26;9.10;;;5.15;;
76063;SDS011;64762;52.006;8.424;2022-12-08T01:18:53;8.10;;;5.20;;
76063;SDS011;64762;52.006;8.424;2022-12-08T01:21:18;8.38;;;5.57;;
76063;SDS011;64762;52.006;8.424;2022-12-08T01:23:44;8.23;;;5.45;;
76063;SDS011;64762;52.006;8.424;2022-12-08T01:26:10;10.95;;;5.40;;
76063;SDS011;64762;52.006;8.424;2022-12-08T01:28:36;9.93;;;5.85;;
76063;SDS011;64762;52.006;8.424;2022-12-08T01:31:01;9.57;;;5.35;;
76063;SDS011;64762;52.006;8.424;2022-12-08T01:33:27;8.45;;;5.35;;
76063;SDS011;64762;52.006;8.424;2022-12-08T01:35:53;8.07;;;5.78;;
76063;SDS011;64762;52.006;8.424;2022-12-08T01:38:19;8.70;;;5.40;;
76063;SDS011;64762;52.006;8.424;2022-12-08T01:40:44;11.82;;;5.30;;
76063;SDS011;64762;52.006;8.424;2022-12-08T01:43:19;9.17;;;5.50;;
76063;SDS011;64762;52.006;8.424;2022-12-08T01:45:45;8.55;;;5.40;;
76063;SDS011;64762;52.006;8.424;2022-12-08T01:48:29;9.38;;;5.88;;
76063;SDS011;64762;52.006;8.424;2022-12-08T01:50:54;8.70;;;4.75;;
76063;SDS011;64762;52.006;8.424;2022-12-08T01:55:51;7.63;;;5.22;;
76063;SDS011;64762;52.006;8.424;2022-12-08T01:58:22;9.20;;;5.53;;
76063;SDS011;64762;52.006;8.424;2022-12-08T02:00:51;8.45;;;5.40;;
76063;SDS011;64762;52.006;8.424;2022-12-08T02:03:26;9.02;;;4.90;;
76063;SDS011;64762;52.006;8.424;2022-12-08T02:05:53;10.70;;;5.60;;
76063;SDS011;64762;52.006;8.424;2022-12-08T02:08:18;7.50;;;5.25;;
76063;SDS011;64762;52.006;8.424;2022-12-08T02:10:45;8.32;;;5.03;;
76063;SDS011;64762;52.006;8.424;2022-12-08T02:13:12;8.10;;;4.38;;
76063;SDS011;64762;52.006;8.424;2022-12-08T02:18:21;8.02;;;5.22;;
76063;SDS011;64762;52.006;8.424;2022-12-08T02:20:55;7.68;;;4.80;;
76063;SDS011;64762;52.006;8.424;2022-12-08T02:31:48;7.35;;;4.65;;
76063;SDS011;64762;52.006;8.424;2022-12-08T02:39:40;7.18;;;4.80;;
76063;SDS011;64762;52.006;8.424;2022-12-08T02:42:23;6.57;;;4.18;;
76063;SDS011;64762;52.006;8.424;2022-12-08T02:45:08;6.53;;;4.35;;
76063;SDS011;64762;52.006;8.424;2022-12-08T02:50:02;6.97;;;4.10;;
76063;SDS011;64762;52.006;8.424;2022-12-08T02:55:08;8.23;;;5.50;;
76063;SDS011;64762;52.006;8.424;2022-12-08T03:00:11;7.57;;;5.27;;
76063;SDS011;64762;52.006;8.424;2022-12-08T03:02:44;6.63;;;4.53;;
76063;SDS011;64762;52.006;8.424;2022-12-08T03:08:16;6.90;;;5.10;;
76063;SDS011;64762;52.006;8.424;2022-12-08T03:10:49;13.63;;;5.05;;
76063;SDS011;64762;52.006;8.424;2022-12-08T03:13:28;8.93;;;5.35;;
76063;SDS011;64762;52.006;8.424;2022-12-08T03:16:11;7.35;;;5.40;;
76063;SDS011;64762;52.006;8.424;2022-12-08T03:18:43;7.30;;;4.90;;
76063;SDS011;64762;52.006;8.424;2022-12-08T03:21:12;7.32;;;5.40;;
76063;SDS011;64762;52.006;8.424;2022-12-08T03:23:39;8.57;;;5.88;;
76063;SDS011;64762;52.006;8.424;2022-12-08T03:26:13;8.38;;;5.68;;
76063;SDS011;64762;52.006;8.424;2022-12-08T03:28:42;9.15;;;5.60;;
76063;SDS011;64762;52.006;8.424;2022-12-08T03:31:09;10.02;;;6.10;;
76063;SDS011;64762;52.006;8.424;2022-12-08T03:33:36;8.93;;;5.97;;
76063;SDS011;64762;52.006;8.424;2022-12-08T03:36:05;9.90;;;6.32;;
76063;SDS011;64762;52.006;8.424;2022-12-08T03:38:36;9.40;;;5.60;;
76063;SDS011;64762;52.006;8.424;2022-12-08T03:41:02;8.32;;;5.55;;
76063;SDS011;64762;52.006;8.424;2022-12-08T03:43:50;9.15;;;5.85;;
76063;SDS011;64762;52.006;8.424;2022-12-08T03:46:18;8.52;;;5.88;;
76063;SDS011;64762;52.006;8.424;2022-12-08T03:48:44;9.15;;;5.70;;
76063;SDS011;64762;52.006;8.424;2022-12-08T03:51:10;9.38;;;5.72;;
76063;SDS011;64762;52.006;8.424;2022-12-08T03:53:36;11.82;;;6.60;;
76063;SDS011;64762;52.006;8.424;2022-12-08T03:56:15;12.05;;;6.50;;
76063;SDS011;64762;52.006;8.424;2022-12-08T03:58:44;10.23;;;6.47;;
76063;SDS011;64762;52.006;8.424;2022-12-08T04:01:10;9.80;;;6.60;;
76063;SDS011;64762;52.006;8.424;2022-12-08T04:03:35;10.52;;;6.05;;
76063;SDS011;64762;52.006;8.424;2022-12-08T04:06:01;9.20;;;6.27;;
76063;SDS011;64762;52.006;8.424;2022-12-08T04:08:26;9.33;;;5.70;;
76063;SDS011;64762;52.006;8.424;2022-12-08T04:10:51;9.60;;;6.68;;
76063;SDS011;64762;52.006;8.424;2022-12-08T04:13:17;8.85;;;5.75;;
76063;SDS011;64762;52.006;8.424;2022-12-08T04:15:46;8.07;;;6.13;;
76063;SDS011;64762;52.006;8.424;2022-12-08T04:18:12;8.32;;;6.25;;
76063;SDS011;64762;52.006;8.424;2022-12-08T04:20:38;10.98;;;6.55;;
76063;SDS011;64762;52.006;8.424;2022-12-08T04:23:05;10.65;;;6.00;;
76063;SDS011;64762;52.006;8.424;2022-12-08T04:25:30;9.00;;;6.83;;
76063;SDS011;64762;52.006;8.424;2022-12-08T04:27:55;11.33;;;7.87;;
76063;SDS011;64762;52.006;8.424;2022-12-08T04:30:20;9.23;;;6.47;;
76063;SDS011;64762;52.006;8.424;2022-12-08T04:32:46;11.53;;;7.23;;
76063;SDS011;64762;52.006;8.424;2022-12-08T04:35:11;9.87;;;7.00;;
76063;SDS011;64762;52.006;8.424;2022-12-08T04:37:36;10.57;;;7.53;;
76063;SDS011;64762;52.006;8.424;2022-12-08T04:40:02;11.50;;;7.90;;
76063;SDS011;64762;52.006;8.424;2022-12-08T04:42:27;12.27;;;8.13;;
76063;SDS011;64762;52.006;8.424;2022-12-08T04:44:53;11.63;;;8.97;;
76063;SDS011;64762;52.006;8.424;2022-12-08T04:47:18;10.50;;;7.30;;
76063;SDS011;64762;52.006;8.424;2022-12-08T04:49:44;11.75;;;8.13;;
76063;SDS011;64762;52.006;8.424;2022-12-08T04:52:10;11.50;;;7.67;;
76063;SDS011;64762;52.006;8.424;2022-12-08T04:54:35;12.63;;;7.70;;
76063;SDS011;64762;52.006;8.424;2022-12-08T04:57:00;12.43;;;8.27;;
76063;SDS011;64762;52.006;8.424;2022-12-08T04:59:26;12.40;;;7.30;;
76063;SDS011;64762;52.006;8.424;2022-12-08T05:01:51;10.40;;;6.93;;
76063;SDS011;64762;52.006;8.424;2022-12-08T05:04:16;10.53;;;7.97;;
76063;SDS011;64762;52.006;8.424;2022-12-08T05:06:41;10.63;;;7.97;;
76063;SDS011;64762;52.006;8.424;2022-12-08T05:09:07;10.70;;;7.13;;
76063;SDS011;64762;52.006;8.424;2022-12-08T05:11:32;10.33;;;7.03;;
76063;SDS011;64762;52.006;8.424;2022-12-08T05:13:57;11.47;;;7.23;;
76063;SDS011;64762;52.006;8.424;2022-12-08T05:16:23;13.50;;;7.50;;
76063;SDS011;64762;52.006;8.424;2022-12-08T05:18:48;8.97;;;6.70;;
76063;SDS011;64762;52.006;8.424;2022-12-08T05:21:13;10.47;;;6.60;;
76063;SDS011;64762;52.006;8.424;2022-12-08T05:23:39;10.90;;;7.40;;
76063;SDS011;64762;52.006;8.424;2022-12-08T05:26:04;10.05;;;6.82;;
76063;SDS011;64762;52.006;8.424;2022-12-08T05:28:30;6.47;;;4.25;;
76063;SDS011;64762;52.006;8.424;2022-12-08T05:30:55;8.65;;;6.28;;
76063;SDS011;64762;52.006;8.424;2022-12-08T05:33:21;8.57;;;6.27;;
76063;SDS011;64762;52.006;8.424;2022-12-08T05:35:46;9.07;;;6.07;;
76063;SDS011;64762;52.006;8.424;2022-12-08T05:38:11;10.07;;;6.03;;
76063;SDS011;64762;52.006;8.424;2022-12-08T05:40:37;5.13;;;3.67;;
76063;SDS011;64762;52.006;8.424;2022-12-08T05:43:03;7.88;;;5.05;;
76063;SDS011;64762;52.006;8.424;2022-12-08T05:45:29;6.28;;;4.13;;
76063;SDS011;64762;52.006;8.424;2022-12-08T05:47:54;7.27;;;4.60;;
76063;SDS011;64762;52.006;8.424;2022-12-08T05:50:19;7.73;;;4.97;;
76063;SDS011;64762;52.006;8.424;2022-12-08T05:52:45;7.57;;;4.97;;
76063;SDS011;64762;52.006;8.424;2022-12-08T05:55:10;6.77;;;4.90;;
76063;SDS011;64762;52.006;8.424;2022-12-08T05:57:36;8.02;;;5.18;;
76063;SDS011;64762;52.006;8.424;2022-12-08T06:00:01;8.57;;;5.50;;
76063;SDS011;64762;52.006;8.424;2022-12-08T06:02:26;8.65;;;5.68;;
76063;SDS011;64762;52.006;8.424;2022-12-08T06:04:52;7.25;;;5.22;;
76063;SDS011;64762;52.006;8.424;2022-12-08T06:07:17;8.47;;;5.27;;
76063;SDS011;64762;52.006;8.424;2022-12-08T06:09:43;10.33;;;6.60;;
76063;SDS011;64762;52.006;8.424;2022-12-08T06:12:08;8.77;;;5.93;;
76063;SDS011;64762;52.006;8.424;2022-12-08T06:14:36;8.57;;;6.30;;
76063;SDS011;64762;52.006;8.424;2022-12-08T06:17:03;9.82;;;6.32;;
76063;SDS011;64762;52.006;8.424;2022-12-08T06:19:28;9.77;;;6.05;;
76063;SDS011;64762;52.006;8.424;2022-12-08T06:21:53;10.40;;;7.33;;
76063;SDS011;64762;52.006;8.424;2022-12-08T06:24:19;10.57;;;7.20;;
76063;SDS011;64762;52.006;8.424;2022-12-08T06:26:44;12.38;;;7.40;;
76063;SDS011;64762;52.006;8.424;2022-12-08T06:29:10;9.95;;;6.82;;
76063;SDS011;64762;52.006;8.424;2022-12-08T06:31:36;10.43;;;6.78;;
76063;SDS011;64762;52.006;8.424;2022-12-08T06:34:01;10.30;;;6.70;;
76063;SDS011;64762;52.006;8.424;2022-12-08T06:36:27;11.20;;;7.27;;
76063;SDS011;64762;52.006;8.424;2022-12-08T06:38:52;9.48;;;7.13;;
76063;SDS011;64762;52.006;8.424;2022-12-08T06:41:18;11.95;;;8.00;;
76063;SDS011;64762;52.006;8.424;2022-12-08T06:43:43;10.70;;;7.53;;
76063;SDS011;64762;52.006;8.424;2022-12-08T06:46:11;10.25;;;6.50;;
76063;SDS011;64762;52.006;8.424;2022-12-08T06:48:39;10.98;;;8.02;;
76063;SDS011;64762;52.006;8.424;2022-12-08T06:51:10;9.80;;;6.43;;
76063;SDS011;64762;52.006;8.424;2022-12-08T06:53:37;10.10;;;6.40;;
76063;SDS011;64762;52.006;8.424;2022-12-08T06:56:03;12.63;;;6.75;;
76063;SDS011;64762;52.006;8.424;2022-12-08T06:58:29;11.20;;;7.50;;
76063;SDS011;64762;52.006;8.424;2022-12-08T07:00:55;12.10;;;7.40;;
76063;SDS011;64762;52.006;8.424;2022-12-08T07:03:20;10.07;;;6.77;;
76063;SDS011;64762;52.006;8.424;2022-12-08T07:05:46;9.20;;;6.63;;
76063;SDS011;64762;52.006;8.424;2022-12-08T07:08:11;10.63;;;6.95;;
76063;SDS011;64762;52.006;8.424;2022-12-08T07:10:37;12.00;;;7.18;;
76063;SDS011;64762;52.006;8.424;2022-12-08T07:13:02;11.57;;;8.02;;
76063;SDS011;64762;52.006;8.424;2022-12-08T07:15:28;11.13;;;7.70;;
76063;SDS011;64762;52.006;8.424;2022-12-08T07:17:53;12.48;;;7.65;;
76063;SDS011;64762;52.006;8.424;2022-12-08T07:20:19;11.57;;;7.43;;
76063;SDS011;64762;52.006;8.424;2022-12-08T07:22:50;12.00;;;8.10;;
76063;SDS011;64762;52.006;8.424;2022-12-08T07:25:16;12.13;;;7.93;;
76063;SDS011;64762;52.006;8.424;2022-12-08T07:27:42;11.50;;;6.65;;
76063;SDS011;64762;52.006;8.424;2022-12-08T07:30:08;10.18;;;6.72;;
76063;SDS011;64762;52.006;8.424;2022-12-08T07:32:35;10.57;;;6.45;;
76063;SDS011;64762;52.006;8.424;2022-12-08T07:35:01;9.15;;;6.40;;
76063;SDS011;64762;52.006;8.424;2022-12-08T07:37:26;11.10;;;6.80;;
76063;SDS011;64762;52.006;8.424;2022-12-08T07:39:51;8.47;;;5.67;;
76063;SDS011;64762;52.006;8.424;2022-12-08T07:42:17;9.63;;;6.10;;
76063;SDS011;64762;52.006;8.424;2022-12-08T07:44:42;9.20;;;6.03;;
76063;SDS011;64762;52.006;8.424;2022-12-08T07:47:07;11.07;;;7.33;;
76063;SDS011;64762;52.006;8.424;2022-12-08T07:49:33;9.77;;;6.53;;
76063;SDS011;64762;52.006;8.424;2022-12-08T07:51:58;10.23;;;6.73;;
76063;SDS011;64762;52.006;8.424;2022-12-08T07:54:23;10.47;;;6.33;;
76063;SDS011;64762;52.006;8.424;2022-12-08T07:56:49;9.37;;;5.73;;
76063;SDS011;64762;52.006;8.424;2022-12-08T07:59:14;9.80;;;5.87;;
76063;SDS011;64762;52.006;8.424;2022-12-08T08:01:39;8.80;;;6.33;;
76063;SDS011;64762;52.006;8.424;2022-12-08T08:04:05;8.93;;;5.57;;
76063;SDS011;64762;52.006;8.424;2022-12-08T08:06:31;8.35;;;5.38;;
76063;SDS011;64762;52.006;8.424;2022-12-08T08:08:56;9.25;;;5.88;;
76063;SDS011;64762;52.006;8.424;2022-12-08T08:11:22;8.93;;;5.40;;
76063;SDS011;64762;52.006;8.424;2022-12-08T08:13:48;8.50;;;5.63;;
76063;SDS011;64762;52.006;8.424;2022-12-08T08:16:14;8.38;;;5.93;;
76063;SDS011;64762;52.006;8.424;2022-12-08T08:18:40;8.50;;;5.30;;
76063;SDS011;64762;52.006;8.424;2022-12-08T08:21:06;9.50;;;5.50;;
76063;SDS011;64762;52.006;8.424;2022-12-08T08:23:31;7.40;;;4.78;;
76063;SDS011;64762;52.006;8.424;2022-12-08T08:25:58;8.00;;;5.50;;
76063;SDS011;64762;52.006;8.424;2022-12-08T08:28:24;8.43;;;5.25;;
76063;SDS011;64762;52.006;8.424;2022-12-08T08:30:50;9.20;;;5.75;;
76063;SDS011;64762;52.006;8.424;2022-12-08T08:33:15;7.93;;;5.30;;
76063;SDS011;64762;52.006;8.424;2022-12-08T08:35:40;7.90;;;5.03;;
76063;SDS011;64762;52.006;8.424;2022-12-08T08:38:06;7.00;;;4.57;;
76063;SDS011;64762;52.006;8.424;2022-12-08T08:40:32;7.55;;;4.68;;
76063;SDS011;64762;52.006;8.424;2022-12-08T08:42:59;6.90;;;4.73;;
76063;SDS011;64762;52.006;8.424;2022-12-08T08:45:25;8.18;;;5.43;;
76063;SDS011;64762;52.006;8.424;2022-12-08T08:47:50;7.53;;;5.03;;
76063;SDS011;64762;52.006;8.424;2022-12-08T08:50:15;8.07;;;4.53;;
76063;SDS011;64762;52.006;8.424;2022-12-08T08:52:41;8.80;;;5.07;;
76063;SDS011;64762;52.006;8.424;2022-12-08T08:55:06;7.80;;;4.65;;
76063;SDS011;64762;52.006;8.424;2022-12-08T08:57:32;7.32;;;4.53;;
76063;SDS011;64762;52.006;8.424;2022-12-08T08:59:57;6.97;;;4.83;;
76063;SDS011;64762;52.006;8.424;2022-12-08T09:02:22;6.50;;;4.40;;
76063;SDS011;64762;52.006;8.424;2022-12-08T09:04:48;6.95;;;4.80;;
76063;SDS011;64762;52.006;8.424;2022-12-08T09:07:13;7.73;;;4.90;;
76063;SDS011;64762;52.006;8.424;2022-12-08T09:09:40;6.82;;;4.38;;
76063;SDS011;64762;52.006;8.424;2022-12-08T09:12:05;6.82;;;4.60;;
76063;SDS011;64762;52.006;8.424;2022-12-08T09:14:33;6.50;;;4.25;;
76063;SDS011;64762;52.006;8.424;2022-12-08T09:16:58;7.05;;;4.50;;
76063;SDS011;64762;52.006;8.424;2022-12-08T09:19:23;7.85;;;4.90;;
76063;SDS011;64762;52.006;8.424;2022-12-08T09:21:49;6.78;;;4.63;;
76063;SDS011;64762;52.006;8.424;2022-12-08T09:24:14;8.93;;;5.35;;
76063;SDS011;64762;52.006;8.424;2022-12-08T09:26:41;6.82;;;5.22;;
76063;SDS011;64762;52.006;8.424;2022-12-08T09:29:07;7.20;;;4.85;;
76063;SDS011;64762;52.006;8.424;2022-12-08T09:31:33;7.43;;;5.00;;
76063;SDS011;64762;52.006;8.424;2022-12-08T09:33:58;8.23;;;4.63;;
76063;SDS011;64762;52.006;8.424;2022-12-08T09:36:24;7.35;;;4.43;;
76063;SDS011;64762;52.006;8.424;2022-12-08T09:38:49;7.83;;;5.13;;
76063;SDS011;64762;52.006;8.424;2022-12-08T09:46:51;6.68;;;4.40;;
76063;SDS011;64762;52.006;8.424;2022-12-08T09:49:18;7.22;;;4.97;;
76063;SDS011;64762;52.006;8.424;2022-12-08T09:51:46;7.28;;;5.00;;
76063;SDS011;64762;52.006;8.424;2022-12-08T09:54:19;7.00;;;4.77;;
76063;SDS011;64762;52.006;8.424;2022-12-08T09:56:46;7.30;;;5.25;;
76063;SDS011;64762;52.006;8.424;2022-12-08T10:01:58;6.90;;;4.82;;
76063;SDS011;64762;52.006;8.424;2022-12-08T10:04:25;6.30;;;3.70;;
76063;SDS011;64762;52.006;8.424;2022-12-08T10:14:45;6.03;;;3.97;;
76063;SDS011;64762;52.006;8.424;2022-12-08T10:20:00;6.05;;;3.97;;
76063;SDS011;64762;52.006;8.424;2022-12-08T10:22:30;6.07;;;4.10;;
76063;SDS011;64762;52.006;8.424;2022-12-08T10:27:28;5.80;;;3.95;;
76063;SDS011;64762;52.006;8.424;2022-12-08T10:29:54;5.97;;;4.18;;
76063;SDS011;64762;52.006;8.424;2022-12-08T10:32:21;5.22;;;3.47;;
76063;SDS011;64762;52.006;8.424;2022-12-08T10:35:04;6.13;;;4.07;;
76063;SDS011;64762;52.006;8.424;2022-12-08T10:37:29;6.32;;;3.78;;
76063;SDS011;64762;52.006;8.424;2022-12-08T10:40:04;6.10;;;4.33;;
76063;SDS011;64762;52.006;8.424;2022-12-08T10:42:34;6.07;;;4.15;;
76063;SDS011;64762;52.006;8.424;2022-12-08T10:47:36;5.55;;;3.80;;
76063;SDS011;64762;52.006;8.424;2022-12-08T10:50:07;7.55;;;3.50;;
76063;SDS011;64762;52.006;8.424;2022-12-08T10:52:57;5.15;;;3.25;;
76063;SDS011;64762;52.006;8.424;2022-12-08T10:55:24;5.72;;;4.05;;
76063;SDS011;64762;52.006;8.424;2022-12-08T10:57:49;5.28;;;3.30;;
76063;SDS011;64762;52.006;8.424;2022-12-08T11:00:16;5.20;;;3.40;;
76063;SDS011;64762;52.006;8.424;2022-12-08T11:02:57;5.85;;;3.97;;
76063;SDS011;64762;52.006;8.424;2022-12-08T11:05:34;5.32;;;3.42;;
76063;SDS011;64762;52.006;8.424;2022-12-08T11:08:00;4.50;;;3.00;;
76063;SDS011;64762;52.006;8.424;2022-12-08T11:10:29;4.85;;;3.15;;
76063;SDS011;64762;52.006;8.424;2022-12-08T11:13:01;4.22;;;2.80;;
76063;SDS011;64762;52.006;8.424;2022-12-08T11:15:36;4.38;;;2.63;;
76063;SDS011;64762;52.006;8.424;2022-12-08T11:18:07;4.20;;;2.63;;
76063;SDS011;64762;52.006;8.424;2022-12-08T11:20:42;3.92;;;2.42;;
76063;SDS011;64762;52.006;8.424;2022-12-08T11:23:18;4.00;;;2.37;;
76063;SDS011;64762;52.006;8.424;2022-12-08T11:25:45;4.35;;;2.83;;
76063;SDS011;64762;52.006;8.424;2022-12-08T11:28:11;4.35;;;2.67;;
76063;SDS011;64762;52.006;8.424;2022-12-08T11:30:37;5.03;;;2.53;;
76063;SDS011;64762;52.006;8.424;2022-12-08T11:33:17;4.20;;;2.88;;
76063;SDS011;64762;52.006;8.424;2022-12-08T11:35:44;4.68;;;2.67;;
76063;SDS011;64762;52.006;8.424;2022-12-08T11:38:14;4.30;;;2.83;;
76063;SDS011;64762;52.006;8.424;2022-12-08T11:40:47;4.50;;;2.53;;
76063;SDS011;64762;52.006;8.424;2022-12-08T11:45:41;4.40;;;2.40;;
76063;SDS011;64762;52.006;8.424;2022-12-08T11:48:12;5.18;;;2.50;;
76063;SDS011;64762;52.006;8.424;2022-12-08T11:50:41;4.30;;;2.50;;
76063;SDS011;64762;52.006;8.424;2022-12-08T11:53:14;4.38;;;2.20;;
76063;SDS011;64762;52.006;8.424;2022-12-08T11:55:53;3.90;;;2.42;;
76063;SDS011;64762;52.006;8.424;2022-12-08T12:00:59;3.95;;;2.00;;
76063;SDS011;64762;52.006;8.424;2022-12-08T12:03:30;3.63;;;2.40;;
76063;SDS011;64762;52.006;8.424;2022-12-08T12:06:04;3.45;;;2.25;;
76063;SDS011;64762;52.006;8.424;2022-12-08T12:17:04;3.42;;;2.22;;
76063;SDS011;64762;52.006;8.424;2022-12-08T12:19:32;3.55;;;2.30;;
76063;SDS011;64762;52.006;8.424;2022-12-08T12:22:04;5.32;;;2.33;;
76063;SDS011;64762;52.006;8.424;2022-12-08T12:24:43;3.33;;;2.10;;
76063;SDS011;64762;52.006;8.424;2022-12-08T12:29:38;3.72;;;2.17;;
76063;SDS011;64762;52.006;8.424;2022-12-08T12:32:09;3.47;;;2.10;;
76063;SDS011;64762;52.006;8.424;2022-12-08T12:34:36;3.83;;;2.17;;
76063;SDS011;64762;52.006;8.424;2022-12-08T12:37:12;4.70;;;2.45;;
76063;SDS011;64762;52.006;8.424;2022-12-08T12:48:11;3.63;;;2.20;;
76063;SDS011;64762;52.006;8.424;2022-12-08T12:58:18;3.80;;;2.55;;
76063;SDS011;64762;52.006;8.424;2022-12-08T13:03:40;4.70;;;2.72;;
76063;SDS011;64762;52.006;8.424;2022-12-08T13:06:07;4.07;;;2.28;;
76063;SDS011;64762;52.006;8.424;2022-12-08T13:08:40;3.42;;;2.33;;
76063;SDS011;64762;52.006;8.424;2022-12-08T13:11:14;4.00;;;2.40;;
76063;SDS011;64762;52.006;8.424;2022-12-08T13:14:01;3.97;;;2.20;;
76063;SDS011;64762;52.006;8.424;2022-12-08T13:16:32;4.90;;;2.35;;
76063;SDS011;64762;52.006;8.424;2022-12-08T13:18:59;3.60;;;2.20;;
76063;SDS011;64762;52.006;8.424;2022-12-08T13:21:34;3.95;;;2.30;;
76063;SDS011;64762;52.006;8.424;2022-12-08T13:29:28;3.75;;;2.13;;
76063;SDS011;64762;52.006;8.424;2022-12-08T13:31:54;4.65;;;2.30;;
76063;SDS011;64762;52.006;8.424;2022-12-08T13:37:30;3.67;;;1.90;;
76063;SDS011;64762;52.006;8.424;2022-12-08T13:40:01;3.90;;;2.05;;
76063;SDS011;64762;52.006;8.424;2022-12-08T13:47:35;3.28;;;1.80;;
76063;SDS011;64762;52.006;8.424;2022-12-08T13:50:11;3.55;;;1.80;;
76063;SDS011;64762;52.006;8.424;2022-12-08T13:55:20;3.38;;;1.80;;
76063;SDS011;64762;52.006;8.424;2022-12-08T13:57:50;4.90;;;1.65;;
76063;SDS011;64762;52.006;8.424;2022-12-08T14:00:19;3.10;;;1.70;;
76063;SDS011;64762;52.006;8.424;2022-12-08T14:02:46;3.17;;;1.77;;
76063;SDS011;64762;52.006;8.424;2022-12-08T14:05:13;3.63;;;1.90;;
76063;SDS011;64762;52.006;8.424;2022-12-08T14:07:40;3.92;;;2.20;;
76063;SDS011;64762;52.006;8.424;2022-12-08T14:10:09;4.18;;;2.72;;
76063;SDS011;64762;52.006;8.424;2022-12-08T14:12:50;4.63;;;2.15;;
76063;SDS011;64762;52.006;8.424;2022-12-08T14:15:18;3.80;;;2.03;;
76063;SDS011;64762;52.006;8.424;2022-12-08T14:17:50;5.03;;;2.20;;
76063;SDS011;64762;52.006;8.424;2022-12-08T14:20:23;3.55;;;2.03;;
76063;SDS011;64762;52.006;8.424;2022-12-08T14:22:52;3.70;;;2.47;;
76063;SDS011;64762;52.006;8.424;2022-12-08T14:25:18;5.38;;;3.90;;
76063;SDS011;64762;52.006;8.424;2022-12-08T14:27:43;5.40;;;3.63;;
76063;SDS011;64762;52.006;8.424;2022-12-08T14:32:48;4.32;;;2.30;;
76063;SDS011;64762;52.006;8.424;2022-12-08T14:35:19;3.90;;;2.20;;
76063;SDS011;64762;52.006;8.424;2022-12-08T14:38:02;4.05;;;2.25;;
76063;SDS011;64762;52.006;8.424;2022-12-08T14:40:31;4.43;;;2.50;;
76063;SDS011;64762;52.006;8.424;2022-12-08T14:45:31;4.45;;;3.00;;
76063;SDS011;64762;52.006;8.424;2022-12-08T14:48:16;5.13;;;2.55;;
76063;SDS011;64762;52.006;8.424;2022-12-08T14:50:55;5.43;;;2.88;;
76063;SDS011;64762;52.006;8.424;2022-12-08T14:53:26;6.25;;;3.92;;
76063;SDS011;64762;52.006;8.424;2022-12-08T14:56:00;5.18;;;2.63;;
76063;SDS011;64762;52.006;8.424;2022-12-08T14:58:37;6.90;;;2.40;;
76063;SDS011;64762;52.006;8.424;2022-12-08T15:01:04;3.63;;;2.28;;
76063;SDS011;64762;52.006;8.424;2022-12-08T15:03:30;4.88;;;2.47;;
76063;SDS011;64762;52.006;8.424;2022-12-08T15:05:58;4.68;;;2.90;;
76063;SDS011;64762;52.006;8.424;2022-12-08T15:08:24;4.55;;;2.40;;
76063;SDS011;64762;52.006;8.424;2022-12-08T15:11:10;3.72;;;2.33;;
76063;SDS011;64762;52.006;8.424;2022-12-08T15:13:45;4.30;;;2.50;;
76063;SDS011;64762;52.006;8.424;2022-12-08T15:19:17;3.75;;;2.38;;
76063;SDS011;64762;52.006;8.424;2022-12-08T15:22:21;3.95;;;2.30;;
76063;SDS011;64762;52.006;8.424;2022-12-08T15:24:47;4.82;;;2.20;;
76063;SDS011;64762;52.006;8.424;2022-12-08T15:27:16;3.85;;;2.30;;
76063;SDS011;64762;52.006;8.424;2022-12-08T15:29:43;4.03;;;2.17;;
76063;SDS011;64762;52.006;8.424;2022-12-08T15:32:08;3.67;;;2.00;;
76063;SDS011;64762;52.006;8.424;2022-12-08T15:34:35;3.30;;;1.80;;
76063;SDS011;64762;52.006;8.424;2022-12-08T15:37:01;3.33;;;2.00;;
76063;SDS011;64762;52.006;8.424;2022-12-08T15:39:29;3.03;;;1.83;;
76063;SDS011;64762;52.006;8.424;2022-12-08T15:41:56;3.58;;;1.95;;
76063;SDS011;64762;52.006;8.424;2022-12-08T15:44:22;3.85;;;2.38;;
76063;SDS011;64762;52.006;8.424;2022-12-08T15:46:48;4.30;;;2.00;;
76063;SDS011;64762;52.006;8.424;2022-12-08T15:49:18;3.83;;;2.45;;
76063;SDS011;64762;52.006;8.424;2022-12-08T15:51:44;4.72;;;2.53;;
76063;SDS011;64762;52.006;8.424;2022-12-08T15:54:10;5.13;;;2.40;;
76063;SDS011;64762;52.006;8.424;2022-12-08T15:56:38;3.47;;;2.17;;
76063;SDS011;64762;52.006;8.424;2022-12-08T15:59:08;3.65;;;2.30;;
76063;SDS011;64762;52.006;8.424;2022-12-08T16:01:37;4.95;;;2.55;;
76063;SDS011;64762;52.006;8.424;2022-12-08T16:04:03;4.50;;;2.70;;
76063;SDS011;64762;52.006;8.424;2022-12-08T16:06:28;4.35;;;2.55;;
76063;SDS011;64762;52.006;8.424;2022-12-08T16:08:53;5.43;;;2.73;;
76063;SDS011;64762;52.006;8.424;2022-12-08T16:11:19;6.33;;;2.73;;
76063;SDS011;64762;52.006;8.424;2022-12-08T16:14:03;5.07;;;2.88;;
76063;SDS011;64762;52.006;8.424;2022-12-08T16:16:28;5.97;;;3.00;;
76063;SDS011;64762;52.006;8.424;2022-12-08T16:18:54;6.75;;;3.28;;
76063;SDS011;64762;52.006;8.424;2022-12-08T16:21:19;5.77;;;2.80;;
76063;SDS011;64762;52.006;8.424;2022-12-08T16:23:45;4.50;;;2.80;;
76063;SDS011;64762;52.006;8.424;2022-12-08T16:26:14;4.63;;;2.75;;
76063;SDS011;64762;52.006;8.424;2022-12-08T16:28:41;5.85;;;3.47;;
76063;SDS011;64762;52.006;8.424;2022-12-08T16:31:07;6.07;;;3.03;;
76063;SDS011;64762;52.006;8.424;2022-12-08T16:33:33;5.28;;;3.10;;
76063;SDS011;64762;52.006;8.424;2022-12-08T16:35:59;6.50;;;3.67;;
76063;SDS011;64762;52.006;8.424;2022-12-08T16:38:24;5.97;;;3.43;;
76063;SDS011;64762;52.006;8.424;2022-12-08T16:40:49;5.37;;;3.77;;
76063;SDS011;64762;52.006;8.424;2022-12-08T16:43:33;5.97;;;3.67;;